Aviation Digital Data Service (ADDS)

Output produced by METARs form (1744 UTC 21 September 2019)
found at http://aviationweather.gov/metar/data/
 
KMCB 211653Z AUTO 13009G14KT 10SM SCT042 BKN049 31/20 A3018 RMK AO2 SLP214 T03060200
KMCB 211744Z 2118/2218 12012KT P6SM FEW250 
     FM211900 11006KT P6SM FEW050 SCT110 
     FM212300 VRB03KT P6SM FEW030 SCT080 
     FM220400 00000KT P6SM SKC 
     FM221200 00000KT 1/2SM FG BKN003